Time,TemperatureF,DewpointF,PressureIn,WindDirection,WindDirectionDegrees,WindSpeedMPH,WindSpeedGustMPH,Humidity,HourlyPrecipIn,Conditions,Clouds,dailyrainin,SoftwareType,DateUTC
2013-06-28 00:02:00,69.6,48.5,29.87,WSW,255,4.0,5.0,47,0.00,,,0.00,Wunderground v.1.15,2013-06-28 06:02:00,
2013-06-28 00:08:00,69.0,47.9,29.87,West,259,5.0,6.0,47,0.00,,,0.00,Wunderground v.1.15,2013-06-28 06:08:00,
2013-06-28 00:14:00,68.6,47.0,29.87,West,262,5.0,5.0,46,0.00,,,0.00,Wunderground v.1.15,2013-06-28 06:14:00,
2013-06-28 00:20:00,68.6,46.4,29.87,West,267,4.0,5.0,45,0.00,,,0.00,Wunderground v.1.15,2013-06-28 06:20:00,
2013-06-28 00:26:00,69.2,46.4,29.87,WSW,256,3.0,5.0,44,0.00,,,0.00,Wunderground v.1.15,2013-06-28 06:26:00,
2013-06-28 00:32:00,69.7,46.2,29.86,WSW,240,5.0,5.0,43,0.00,,,0.00,Wunderground v.1.15,2013-06-28 06:32:00,
2013-06-28 00:38:00,69.3,46.4,29.86,SW,232,3.0,5.0,44,0.00,,,0.00,Wunderground v.1.15,2013-06-28 06:38:00,
2013-06-28 00:44:00,68.7,45.9,29.86,WSW,252,4.0,5.0,44,0.00,,,0.00,Wunderground v.1.15,2013-06-28 06:44:00,
2013-06-28 00:49:00,68.3,46.1,29.86,WSW,246,3.0,5.0,45,0.00,,,0.00,Wunderground v.1.15,2013-06-28 06:49:00,
2013-06-28 00:55:00,67.9,46.3,29.86,SW,228,2.0,5.0,46,0.00,,,0.00,Wunderground v.1.15,2013-06-28 06:55:00,
2013-06-28 01:01:00,67.9,46.3,29.86,SW,233,6.0,6.0,46,0.00,,,0.00,Wunderground v.1.15,2013-06-28 07:01:00,
2013-06-28 01:06:00,67.0,46.1,29.86,WSW,246,6.0,6.0,47,0.00,,,0.00,Wunderground v.1.15,2013-06-28 07:06:00,
2013-06-28 01:11:00,66.4,46.1,29.86,WSW,253,6.0,6.0,48,0.00,,,0.00,Wunderground v.1.15,2013-06-28 07:11:00,
2013-06-28 01:17:00,66.1,45.8,29.86,WSW,249,5.0,6.0,48,0.00,,,0.00,Wunderground v.1.15,2013-06-28 07:17:00,
2013-06-28 01:23:00,66.2,45.9,29.86,WSW,238,4.0,6.0,48,0.00,,,0.00,Wunderground v.1.15,2013-06-28 07:23:00,
2013-06-28 01:29:00,66.4,46.1,29.86,WSW,243,5.0,6.0,48,0.00,,,0.00,Wunderground v.1.15,2013-06-28 07:29:00,
2013-06-28 01:35:00,66.6,46.3,29.86,SW,228,4.0,5.0,48,0.00,,,0.00,Wunderground v.1.15,2013-06-28 07:35:00,
2013-06-28 01:40:00,66.8,47.6,29.86,WSW,246,4.0,4.0,50,0.00,,,0.00,Wunderground v.1.15,2013-06-28 07:40:00,
2013-06-28 01:46:00,66.6,46.3,29.86,SSE,154,3.0,4.0,48,0.00,,,0.00,Wunderground v.1.15,2013-06-28 07:46:00,
2013-06-28 01:52:00,66.5,46.2,29.88,South,181,1.0,2.0,48,0.00,,,0.00,Wunderground v.1.15,2013-06-28 07:52:00,
2013-06-28 01:58:00,66.0,46.3,29.87,WSW,243,3.0,4.0,49,0.00,,,0.00,Wunderground v.1.15,2013-06-28 07:58:00,
2013-06-28 02:03:00,65.7,46.5,29.88,SSE,159,0.0,2.0,50,0.00,,,0.00,Wunderground v.1.15,2013-06-28 08:03:00,
2013-06-28 02:08:00,65.1,46.0,29.88,West,271,1.0,2.0,50,0.00,,,0.00,Wunderground v.1.15,2013-06-28 08:08:00,
2013-06-28 02:13:00,65.0,46.4,29.88,WSW,255,4.0,4.0,51,0.00,,,0.00,Wunderground v.1.15,2013-06-28 08:13:00,
2013-06-28 02:18:00,64.7,46.7,29.88,SW,225,2.0,5.0,52,0.00,,,0.00,Wunderground v.1.15,2013-06-28 08:18:00,
2013-06-28 02:23:00,65.0,46.4,29.89,SSW,210,2.0,3.0,51,0.00,,,0.00,Wunderground v.1.15,2013-06-28 08:23:00,
2013-06-28 02:28:00,64.4,46.4,29.88,WSW,246,6.0,7.0,52,0.00,,,0.00,Wunderground v.1.15,2013-06-28 08:28:00,
2013-06-28 02:33:00,63.9,46.9,29.88,WSW,249,6.0,6.0,54,0.00,,,0.00,Wunderground v.1.15,2013-06-28 08:33:00,
2013-06-28 02:38:00,64.5,47.0,29.88,WSW,256,6.0,7.0,53,0.00,,,0.00,Wunderground v.1.15,2013-06-28 08:38:00,
2013-06-28 02:43:00,64.1,47.1,29.88,WSW,243,5.0,6.0,54,0.00,,,0.00,Wunderground v.1.15,2013-06-28 08:43:00,
2013-06-28 02:48:00,64.1,47.1,29.88,WSW,255,3.0,6.0,54,0.00,,,0.00,Wunderground v.1.15,2013-06-28 08:48:00,
2013-06-28 02:53:00,63.6,47.1,29.88,SSW,211,2.0,5.0,55,0.00,,,0.00,Wunderground v.1.15,2013-06-28 08:53:00,
2013-06-28 02:58:00,63.9,47.4,29.88,SW,218,3.0,5.0,55,0.00,,,0.00,Wunderground v.1.15,2013-06-28 08:58:00,
2013-06-28 03:03:00,64.2,47.2,29.87,West,264,1.0,4.0,54,0.00,,,0.00,Wunderground v.1.15,2013-06-28 09:03:00,
2013-06-28 03:08:00,63.9,47.4,29.87,SSW,195,2.0,4.0,55,0.00,,,0.00,Wunderground v.1.15,2013-06-28 09:08:00,
2013-06-28 03:13:00,64.2,47.2,29.87,SSW,203,1.0,3.0,54,0.00,,,0.00,Wunderground v.1.15,2013-06-28 09:13:00,
2013-06-28 03:18:00,64.7,47.2,29.87,WSW,245,2.0,3.0,53,0.00,,,0.00,Wunderground v.1.15,2013-06-28 09:18:00,
2013-06-28 03:23:00,64.8,46.8,29.86,SW,231,2.0,2.0,52,0.00,,,0.00,Wunderground v.1.15,2013-06-28 09:23:00,
2013-06-28 03:28:00,64.7,46.7,29.86,South,177,0.0,3.0,52,0.00,,,0.00,Wunderground v.1.15,2013-06-28 09:28:00,
2013-06-28 03:33:00,64.3,46.8,29.87,SSE,157,1.0,2.0,53,0.00,,,0.00,Wunderground v.1.15,2013-06-28 09:33:00,
2013-06-28 03:38:00,64.1,46.6,29.86,West,268,1.0,3.0,53,0.00,,,0.00,Wunderground v.1.15,2013-06-28 09:38:00,
2013-06-28 03:43:00,64.7,46.7,29.86,SW,229,3.0,3.0,52,0.00,,,0.00,Wunderground v.1.15,2013-06-28 09:43:00,
2013-06-28 03:48:00,65.0,46.4,29.87,South,176,4.0,4.0,51,0.00,,,0.00,Wunderground v.1.15,2013-06-28 09:48:00,
2013-06-28 03:53:00,65.2,46.1,29.86,WSW,255,4.0,5.0,50,0.00,,,0.00,Wunderground v.1.15,2013-06-28 09:53:00,
2013-06-28 03:58:00,64.7,45.6,29.86,WSW,243,3.0,6.0,50,0.00,,,0.00,Wunderground v.1.15,2013-06-28 09:58:00,
2013-06-28 04:03:00,64.5,45.4,29.86,SSW,212,2.0,4.0,50,0.00,,,0.00,Wunderground v.1.15,2013-06-28 10:03:00,
2013-06-28 04:08:00,64.1,45.6,29.86,WSW,248,3.0,4.0,51,0.00,,,0.00,Wunderground v.1.15,2013-06-28 10:08:00,
2013-06-28 04:13:00,63.6,45.6,29.87,WSW,250,4.0,4.0,52,0.00,,,0.00,Wunderground v.1.15,2013-06-28 10:13:00,
2013-06-28 04:18:00,63.3,45.4,29.87,West,270,4.0,6.0,52,0.00,,,0.00,Wunderground v.1.15,2013-06-28 10:18:00,
2013-06-28 04:23:00,63.2,45.8,29.87,WSW,249,2.0,4.0,53,0.00,,,0.00,Wunderground v.1.15,2013-06-28 10:23:00,
2013-06-28 04:28:00,63.2,45.8,29.86,SSW,194,1.0,4.0,53,0.00,,,0.00,Wunderground v.1.15,2013-06-28 10:28:00,
2013-06-28 04:33:00,63.0,45.6,29.86,West,270,1.0,2.0,53,0.00,,,0.00,Wunderground v.1.15,2013-06-28 10:33:00,
2013-06-28 04:38:00,62.9,46.0,29.86,SW,235,2.0,3.0,54,0.00,,,0.00,Wunderground v.1.15,2013-06-28 10:38:00,
2013-06-28 04:43:00,62.4,45.5,29.87,SW,224,2.0,3.0,54,0.00,,,0.00,Wunderground v.1.15,2013-06-28 10:43:00,
2013-06-28 04:48:00,62.2,45.3,29.86,West,260,2.0,3.0,54,0.00,,,0.00,Wunderground v.1.15,2013-06-28 10:48:00,
2013-06-28 04:53:00,62.3,45.4,29.86,SSW,200,2.0,3.0,54,0.00,,,0.00,Wunderground v.1.15,2013-06-28 10:53:00,
2013-06-28 04:58:00,62.5,45.1,29.86,South,177,3.0,4.0,53,0.00,,,0.00,Wunderground v.1.15,2013-06-28 10:58:00,
2013-06-28 05:03:00,63.1,45.2,29.86,SSW,210,2.0,3.0,52,0.00,,,0.00,Wunderground v.1.15,2013-06-28 11:03:00,
2013-06-28 05:08:00,63.3,44.9,29.86,SW,221,2.0,4.0,51,0.00,,,0.00,Wunderground v.1.15,2013-06-28 11:08:00,
2013-06-28 05:13:00,63.1,44.7,29.87,SW,215,3.0,4.0,51,0.00,,,0.00,Wunderground v.1.15,2013-06-28 11:13:00,
2013-06-28 05:18:00,62.8,44.4,29.87,SW,217,1.0,4.0,51,0.00,,,0.00,Wunderground v.1.15,2013-06-28 11:18:00,
2013-06-28 05:25:00,62.4,44.5,29.87,SW,225,1.0,2.0,52,0.00,,,0.00,Wunderground v.1.15,2013-06-28 11:25:00,
2013-06-28 05:30:00,62.1,44.8,29.87,WSW,256,2.0,2.0,53,0.00,,,0.00,Wunderground v.1.15,2013-06-28 11:30:00,
2013-06-28 05:35:00,61.7,44.9,29.87,SSW,201,2.0,3.0,54,0.00,,,0.00,Wunderground v.1.15,2013-06-28 11:35:00,
2013-06-28 05:40:00,61.6,44.8,29.87,SSW,205,3.0,3.0,54,0.00,,,0.00,Wunderground v.1.15,2013-06-28 11:40:00,
2013-06-28 05:45:00,61.6,44.8,29.88,SSW,207,3.0,3.0,54,0.00,,,0.00,Wunderground v.1.15,2013-06-28 11:45:00,
2013-06-28 05:50:00,61.3,45.0,29.88,SSW,198,4.0,4.0,55,0.00,,,0.00,Wunderground v.1.15,2013-06-28 11:50:00,
2013-06-28 05:55:00,61.5,44.7,29.88,WSW,246,4.0,5.0,54,0.00,,,0.00,Wunderground v.1.15,2013-06-28 11:55:00,
2013-06-28 06:00:00,61.4,45.1,29.88,WSW,250,6.0,6.0,55,0.00,,,0.00,Wunderground v.1.15,2013-06-28 12:00:00,
2013-06-28 06:05:00,61.2,44.9,29.88,WSW,246,4.0,7.0,55,0.00,,,0.00,Wunderground v.1.15,2013-06-28 12:05:00,
2013-06-28 06:10:00,62.1,45.2,29.88,SW,224,2.0,4.0,54,0.00,,,0.00,Wunderground v.1.15,2013-06-28 12:10:00,
2013-06-28 06:15:00,62.9,45.5,29.88,SW,231,3.0,4.0,53,0.00,,,0.00,Wunderground v.1.15,2013-06-28 12:15:00,
2013-06-28 06:20:00,63.4,45.5,29.88,South,188,2.0,2.0,52,0.00,,,0.00,Wunderground v.1.15,2013-06-28 12:20:00,
2013-06-28 06:25:00,64.0,46.0,29.88,SSW,198,0.0,3.0,52,0.00,,,0.00,Wunderground v.1.15,2013-06-28 12:25:00,
2013-06-28 06:30:00,64.7,47.2,29.88,SSW,199,1.0,1.0,53,0.00,,,0.00,Wunderground v.1.15,2013-06-28 12:30:00,
2013-06-28 06:35:00,64.9,46.8,29.88,WSW,246,2.0,3.0,52,0.00,,,0.00,Wunderground v.1.15,2013-06-28 12:35:00,
2013-06-28 06:40:00,65.3,47.2,29.88,WSW,249,4.0,4.0,52,0.00,,,0.00,Wunderground v.1.15,2013-06-28 12:40:00,
2013-06-28 06:45:00,66.1,47.4,29.88,WSW,253,1.0,4.0,51,0.00,,,0.00,Wunderground v.1.15,2013-06-28 12:45:00,
2013-06-28 06:50:00,67.3,48.0,29.88,WSW,243,0.0,1.0,50,0.00,,,0.00,Wunderground v.1.15,2013-06-28 12:50:00,
2013-06-28 06:55:00,69.0,46.2,29.88,WSW,242,0.0,1.0,44,0.00,,,0.00,Wunderground v.1.15,2013-06-28 12:55:00,
2013-06-28 07:00:00,70.5,46.9,29.88,WSW,242,0.0,0.0,43,0.00,,,0.00,Wunderground v.1.15,2013-06-28 13:00:00,
2013-06-28 07:05:00,72.3,46.6,29.88,WSW,242,0.0,1.0,40,0.00,,,0.00,Wunderground v.1.15,2013-06-28 13:05:00,
2013-06-28 07:10:00,73.1,46.0,29.88,SSE,158,2.0,2.0,38,0.00,,,0.00,Wunderground v.1.15,2013-06-28 13:10:00,
2013-06-28 07:15:00,73.2,46.8,29.88,SE,139,1.0,2.0,39,0.00,,,0.00,Wunderground v.1.15,2013-06-28 13:15:00,
2013-06-28 07:20:00,73.6,45.7,29.88,East,93,0.0,1.0,37,0.00,,,0.00,Wunderground v.1.15,2013-06-28 13:20:00,
2013-06-28 07:25:00,74.2,45.5,29.88,East,93,0.0,1.0,36,0.00,,,0.00,Wunderground v.1.15,2013-06-28 13:25:00,
2013-06-28 07:30:00,74.5,47.2,29.88,SE,131,0.0,1.0,38,0.00,,,0.00,Wunderground v.1.15,2013-06-28 13:30:00,
2013-06-28 07:35:00,75.0,45.5,29.88,SSE,148,0.0,2.0,35,0.00,,,0.00,Wunderground v.1.15,2013-06-28 13:35:00,
2013-06-28 07:40:00,75.4,45.1,29.89,East,99,3.0,3.0,34,0.00,,,0.00,Wunderground v.1.15,2013-06-28 13:40:00,
2013-06-28 07:45:00,75.1,44.8,29.89,East,88,2.0,3.0,34,0.00,,,0.00,Wunderground v.1.15,2013-06-28 13:45:00,
2013-06-28 07:50:00,74.7,46.0,29.89,ESE,105,3.0,3.0,36,0.00,,,0.00,Wunderground v.1.15,2013-06-28 13:50:00,
2013-06-28 07:55:00,74.3,45.6,29.89,East,82,4.0,6.0,36,0.00,,,0.00,Wunderground v.1.15,2013-06-28 13:55:00,
2013-06-28 08:00:00,73.9,46.7,29.89,ENE,57,3.0,4.0,38,0.00,,,0.00,Wunderground v.1.15,2013-06-28 14:00:00,
2013-06-28 08:05:00,74.2,49.0,29.89,NE,46,2.0,4.0,41,0.00,,,0.00,Wunderground v.1.15,2013-06-28 14:05:00,
2013-06-28 08:10:00,74.5,50.5,29.89,East,82,2.0,4.0,43,0.00,,,0.00,Wunderground v.1.15,2013-06-28 14:10:00,
2013-06-28 08:15:00,74.6,50.0,29.89,NNE,32,2.0,5.0,42,0.00,,,0.00,Wunderground v.1.15,2013-06-28 14:15:00,
2013-06-28 08:20:00,75.0,51.0,29.89,East,85,3.0,4.0,43,0.00,,,0.00,Wunderground v.1.15,2013-06-28 14:20:00,
2013-06-28 08:25:00,75.4,51.3,29.89,ENE,60,5.0,7.0,43,0.00,,,0.00,Wunderground v.1.15,2013-06-28 14:25:00,
2013-06-28 08:30:00,75.0,51.6,29.89,East,87,6.0,8.0,44,0.00,,,0.00,Wunderground v.1.15,2013-06-28 14:30:00,
2013-06-28 08:35:00,74.8,52.0,29.89,East,82,9.0,11.0,45,0.00,,,0.00,Wunderground v.1.15,2013-06-28 14:35:00,
2013-06-28 08:40:00,74.8,52.6,29.89,East,85,8.0,10.0,46,0.00,,,0.00,Wunderground v.1.15,2013-06-28 14:40:00,
2013-06-28 08:45:00,74.7,53.1,29.89,East,82,8.0,13.0,47,0.00,,,0.00,Wunderground v.1.15,2013-06-28 14:45:00,
2013-06-28 08:50:00,74.8,53.2,29.89,East,81,5.0,10.0,47,0.00,,,0.00,Wunderground v.1.15,2013-06-28 14:50:00,
2013-06-28 08:55:00,74.8,53.2,29.89,ENE,64,7.0,11.0,47,0.00,,,0.00,Wunderground v.1.15,2013-06-28 14:55:00,
2013-06-28 09:00:00,74.7,53.7,29.89,East,90,5.0,8.0,48,0.00,,,0.00,Wunderground v.1.15,2013-06-28 15:00:00,
2013-06-28 09:05:00,75.2,54.7,29.89,East,79,3.0,10.0,49,0.00,,,0.00,Wunderground v.1.15,2013-06-28 15:05:00,
2013-06-28 09:10:00,75.1,54.6,29.89,East,98,10.0,10.0,49,0.00,,,0.00,Wunderground v.1.15,2013-06-28 15:10:00,
2013-06-28 09:15:00,75.2,54.2,29.89,East,85,9.0,13.0,48,0.00,,,0.00,Wunderground v.1.15,2013-06-28 15:15:00,
2013-06-28 09:20:00,75.3,54.8,29.90,East,92,8.0,8.0,49,0.00,,,0.00,Wunderground v.1.15,2013-06-28 15:20:00,
2013-06-28 09:25:00,75.8,54.7,29.90,East,82,4.0,12.0,48,0.00,,,0.00,Wunderground v.1.15,2013-06-28 15:25:00,
2013-06-28 09:30:00,76.3,54.6,29.89,ENE,69,7.0,11.0,47,0.00,,,0.00,Wunderground v.1.15,2013-06-28 15:30:00,
2013-06-28 09:35:00,76.8,54.5,29.89,NNE,27,7.0,14.0,46,0.00,,,0.00,Wunderground v.1.15,2013-06-28 15:35:00,
2013-06-28 09:40:00,76.7,55.0,29.89,East,101,4.0,7.0,47,0.00,,,0.00,Wunderground v.1.15,2013-06-28 15:40:00,
2013-06-28 09:45:00,77.2,54.8,29.89,ENE,69,7.0,12.0,46,0.00,,,0.00,Wunderground v.1.15,2013-06-28 15:45:00,
2013-06-28 09:50:00,77.6,55.2,29.89,East,79,5.0,10.0,46,0.00,,,0.00,Wunderground v.1.15,2013-06-28 15:50:00,
2013-06-28 09:55:00,77.5,53.9,29.89,ENE,75,9.0,15.0,44,0.00,,,0.00,Wunderground v.1.15,2013-06-28 15:55:00,
2013-06-28 10:00:00,77.8,55.4,29.89,NNE,27,7.0,11.0,46,0.00,,,0.00,Wunderground v.1.15,2013-06-28 16:00:00,
2013-06-28 10:05:00,78.1,54.4,29.89,East,86,7.0,12.0,44,0.00,,,0.00,Wunderground v.1.15,2013-06-28 16:05:00,
2013-06-28 10:10:00,78.5,54.1,29.89,NNE,18,7.0,13.0,43,0.00,,,0.00,Wunderground v.1.15,2013-06-28 16:10:00,
2013-06-28 10:15:00,78.6,53.6,29.89,East,79,7.0,13.0,42,0.00,,,0.00,Wunderground v.1.15,2013-06-28 16:15:00,
2013-06-28 10:20:00,78.7,53.7,29.90,East,95,8.0,9.0,42,0.00,,,0.00,Wunderground v.1.15,2013-06-28 16:20:00,
2013-06-28 10:25:00,79.0,53.9,29.90,NNE,20,13.0,13.0,42,0.00,,,0.00,Wunderground v.1.15,2013-06-28 16:25:00,
2013-06-28 10:30:00,79.0,53.3,29.90,NNE,19,5.0,8.0,41,0.00,,,0.00,Wunderground v.1.15,2013-06-28 16:30:00,
2013-06-28 10:35:00,79.4,53.6,29.89,East,96,6.0,16.0,41,0.00,,,0.00,Wunderground v.1.15,2013-06-28 16:35:00,
2013-06-28 10:40:00,79.9,52.7,29.89,NE,41,8.0,12.0,39,0.00,,,0.00,Wunderground v.1.15,2013-06-28 16:40:00,
2013-06-28 10:45:00,79.8,52.6,29.90,NNE,25,5.0,15.0,39,0.00,,,0.00,Wunderground v.1.15,2013-06-28 16:45:00,
2013-06-28 10:50:00,80.1,54.3,29.90,North,9,7.0,13.0,41,0.00,,,0.00,Wunderground v.1.15,2013-06-28 16:50:00,
2013-06-28 10:55:00,80.4,53.2,29.90,ENE,69,5.0,13.0,39,0.00,,,0.00,Wunderground v.1.15,2013-06-28 16:55:00,
2013-06-28 11:00:00,80.6,53.4,29.90,ENE,64,8.0,11.0,39,0.00,,,0.00,Wunderground v.1.15,2013-06-28 17:00:00,
2013-06-28 11:05:00,80.7,54.1,29.90,NE,53,4.0,14.0,40,0.00,,,0.00,Wunderground v.1.15,2013-06-28 17:05:00,
2013-06-28 11:11:00,81.0,54.4,29.90,NNE,20,3.0,7.0,40,0.00,,,0.00,Wunderground v.1.15,2013-06-28 17:11:00,
2013-06-28 11:16:00,81.5,53.4,29.90,NE,42,7.0,15.0,38,0.00,,,0.00,Wunderground v.1.15,2013-06-28 17:16:00,
2013-06-28 11:21:00,81.7,54.3,29.90,NNE,15,5.0,9.0,39,0.00,,,0.00,Wunderground v.1.15,2013-06-28 17:21:00,
2013-06-28 11:26:00,81.7,55.0,29.90,NNE,16,5.0,13.0,40,0.00,,,0.00,Wunderground v.1.15,2013-06-28 17:26:00,
2013-06-28 11:31:00,81.8,55.1,29.90,NNE,33,4.0,8.0,40,0.00,,,0.00,Wunderground v.1.15,2013-06-28 17:31:00,
2013-06-28 11:36:00,82.0,55.3,29.90,ENE,74,5.0,11.0,40,0.00,,,0.00,Wunderground v.1.15,2013-06-28 17:36:00,
2013-06-28 11:41:00,82.1,56.7,29.90,East,84,6.0,8.0,42,0.00,,,0.00,Wunderground v.1.15,2013-06-28 17:41:00,
2013-06-28 11:46:00,82.2,56.2,29.90,East,84,4.0,11.0,41,0.00,,,0.00,Wunderground v.1.15,2013-06-28 17:46:00,
2013-06-28 11:51:00,82.9,56.1,29.89,NE,46,10.0,16.0,40,0.00,,,0.00,Wunderground v.1.15,2013-06-28 17:51:00,
2013-06-28 11:56:00,83.0,55.5,29.89,ENE,76,6.0,16.0,39,0.00,,,0.00,Wunderground v.1.15,2013-06-28 17:56:00,
2013-06-28 12:01:00,83.2,56.4,29.89,East,93,7.0,12.0,40,0.00,,,0.00,Wunderground v.1.15,2013-06-28 18:01:00,
2013-06-28 12:06:00,83.5,55.2,29.89,NE,51,4.0,12.0,38,0.00,,,0.00,Wunderground v.1.15,2013-06-28 18:06:00,
2013-06-28 12:11:00,83.6,56.0,29.89,NNW,342,3.0,11.0,39,0.00,,,0.00,Wunderground v.1.15,2013-06-28 18:11:00,
2013-06-28 12:16:00,83.7,56.1,29.89,East,82,12.0,15.0,39,0.00,,,0.00,Wunderground v.1.15,2013-06-28 18:16:00,
2013-06-28 12:21:00,83.3,55.8,29.89,NNE,18,6.0,6.0,39,0.00,,,0.00,Wunderground v.1.15,2013-06-28 18:21:00,
2013-06-28 12:26:00,83.6,56.0,29.88,NE,50,5.0,11.0,39,0.00,,,0.00,Wunderground v.1.15,2013-06-28 18:26:00,
2013-06-28 12:31:00,84.1,56.5,29.88,ENE,74,2.0,6.0,39,0.00,,,0.00,Wunderground v.1.15,2013-06-28 18:31:00,
2013-06-28 12:36:00,84.2,55.8,29.88,ESE,106,10.0,17.0,38,0.00,,,0.00,Wunderground v.1.15,2013-06-28 18:36:00,
2013-06-28 12:41:00,84.2,55.8,29.88,ENE,66,2.0,5.0,38,0.00,,,0.00,Wunderground v.1.15,2013-06-28 18:41:00,
2013-06-28 12:46:00,84.4,56.0,29.88,East,89,9.0,14.0,38,0.00,,,0.00,Wunderground v.1.15,2013-06-28 18:46:00,
2013-06-28 12:51:00,84.0,55.7,29.87,SE,146,5.0,8.0,38,0.00,,,0.00,Wunderground v.1.15,2013-06-28 18:51:00,
2013-06-28 12:56:00,84.5,56.1,29.87,ENE,68,9.0,9.0,38,0.00,,,0.00,Wunderground v.1.15,2013-06-28 18:56:00,
2013-06-28 13:01:00,84.8,56.4,29.87,NNE,15,3.0,5.0,38,0.00,,,0.00,Wunderground v.1.15,2013-06-28 19:01:00,
2013-06-28 13:06:00,85.0,55.8,29.87,North,349,4.0,9.0,37,0.00,,,0.00,Wunderground v.1.15,2013-06-28 19:06:00,
2013-06-28 13:11:00,84.8,56.4,29.86,North,1,4.0,5.0,38,0.00,,,0.00,Wunderground v.1.15,2013-06-28 19:11:00,
2013-06-28 13:16:00,85.1,55.9,29.86,East,84,4.0,9.0,37,0.00,,,0.00,Wunderground v.1.15,2013-06-28 19:16:00,
2013-06-28 13:21:00,85.3,56.1,29.86,East,86,5.0,9.0,37,0.00,,,0.00,Wunderground v.1.15,2013-06-28 19:21:00,
2013-06-28 13:26:00,85.6,55.6,29.86,East,90,7.0,13.0,36,0.00,,,0.00,Wunderground v.1.15,2013-06-28 19:26:00,
2013-06-28 13:31:00,86.1,56.0,29.85,NE,37,8.0,8.0,36,0.00,,,0.00,Wunderground v.1.15,2013-06-28 19:31:00,
2013-06-28 13:36:00,85.9,55.8,29.85,ENE,75,2.0,13.0,36,0.00,,,0.00,Wunderground v.1.15,2013-06-28 19:36:00,
2013-06-28 13:41:00,85.8,56.5,29.84,SE,129,5.0,9.0,37,0.00,,,0.00,Wunderground v.1.15,2013-06-28 19:41:00,
2013-06-28 13:46:00,86.0,57.4,29.84,ENE,76,5.0,11.0,38,0.00,,,0.00,Wunderground v.1.15,2013-06-28 19:46:00,
2013-06-28 13:51:00,86.6,58.0,29.84,SE,129,2.0,9.0,38,0.00,,,0.00,Wunderground v.1.15,2013-06-28 19:51:00,
2013-06-28 13:56:00,87.2,57.8,29.84,SE,129,3.0,11.0,37,0.00,,,0.00,Wunderground v.1.15,2013-06-28 19:56:00,
2013-06-28 14:01:00,87.2,56.2,29.84,ESE,119,7.0,7.0,35,0.00,,,0.00,Wunderground v.1.15,2013-06-28 20:01:00,
2013-06-28 14:06:00,87.4,56.4,29.83,ENE,73,4.0,10.0,35,0.00,,,0.00,Wunderground v.1.15,2013-06-28 20:06:00,
2013-06-28 14:11:00,87.6,55.8,29.83,East,91,3.0,7.0,34,0.00,,,0.00,Wunderground v.1.15,2013-06-28 20:11:00,
2013-06-28 14:16:00,88.0,56.1,29.83,East,95,2.0,10.0,34,0.00,,,0.00,Wunderground v.1.15,2013-06-28 20:16:00,
2013-06-28 14:21:00,88.4,56.5,29.83,ENE,57,6.0,9.0,34,0.00,,,0.00,Wunderground v.1.15,2013-06-28 20:21:00,
2013-06-28 14:27:00,88.4,55.6,29.83,East,84,7.0,13.0,33,0.00,,,0.00,Wunderground v.1.15,2013-06-28 20:27:00,
2013-06-28 14:32:00,88.6,55.8,29.83,East,89,3.0,10.0,33,0.00,,,0.00,Wunderground v.1.15,2013-06-28 20:32:00,
2013-06-28 14:37:00,88.2,54.6,29.83,East,86,5.0,10.0,32,0.00,,,0.00,Wunderground v.1.15,2013-06-28 20:37:00,
2013-06-28 14:42:00,87.4,54.8,29.83,SE,137,3.0,7.0,33,0.00,,,0.00,Wunderground v.1.15,2013-06-28 20:42:00,
2013-06-28 14:47:00,86.8,55.1,29.83,ENE,64,5.0,11.0,34,0.00,,,0.00,Wunderground v.1.15,2013-06-28 20:47:00,
2013-06-28 14:52:00,86.4,55.5,29.82,NE,53,4.0,9.0,35,0.00,,,0.00,Wunderground v.1.15,2013-06-28 20:52:00,
2013-06-28 14:57:00,86.3,54.6,29.82,ESE,106,2.0,9.0,34,0.00,,,0.00,Wunderground v.1.15,2013-06-28 20:57:00,
2013-06-28 15:02:00,86.2,55.3,29.82,ENE,57,6.0,8.0,35,0.00,,,0.00,Wunderground v.1.15,2013-06-28 21:02:00,
2013-06-28 15:07:00,86.4,55.5,29.82,East,84,8.0,12.0,35,0.00,,,0.00,Wunderground v.1.15,2013-06-28 21:07:00,
2013-06-28 15:12:00,87.5,55.7,29.81,East,89,7.0,10.0,34,0.00,,,0.00,Wunderground v.1.15,2013-06-28 21:12:00,
2013-06-28 15:17:00,88.4,55.6,29.81,East,80,4.0,10.0,33,0.00,,,0.00,Wunderground v.1.15,2013-06-28 21:17:00,
2013-06-28 15:22:00,88.8,56.0,29.81,ESE,112,9.0,11.0,33,0.00,,,0.00,Wunderground v.1.15,2013-06-28 21:22:00,
2013-06-28 15:27:00,89.3,55.6,29.81,ESE,107,7.0,13.0,32,0.00,,,0.00,Wunderground v.1.15,2013-06-28 21:27:00,
2013-06-28 15:32:00,89.5,54.9,29.81,East,79,5.0,7.0,31,0.00,,,0.00,Wunderground v.1.15,2013-06-28 21:32:00,
2013-06-28 15:37:00,90.0,55.3,29.81,East,92,4.0,11.0,31,0.00,,,0.00,Wunderground v.1.15,2013-06-28 21:37:00,
2013-06-28 15:42:00,89.7,55.0,29.81,ENE,77,10.0,12.0,31,0.00,,,0.00,Wunderground v.1.15,2013-06-28 21:42:00,
2013-06-28 15:47:00,90.1,54.5,29.80,ESE,102,0.0,12.0,30,0.00,,,0.00,Wunderground v.1.15,2013-06-28 21:47:00,
2013-06-28 15:52:00,90.3,54.7,29.80,East,79,2.0,7.0,30,0.00,,,0.00,Wunderground v.1.15,2013-06-28 21:52:00,
2013-06-28 15:57:00,90.4,53.8,29.80,East,84,3.0,13.0,29,0.00,,,0.00,Wunderground v.1.15,2013-06-28 21:57:00,
2013-06-28 16:02:00,89.7,55.0,29.80,ESE,108,5.0,5.0,31,0.00,,,0.00,Wunderground v.1.15,2013-06-28 22:02:00,
2013-06-28 16:07:00,89.8,53.3,29.80,ESE,104,5.0,8.0,29,0.00,,,0.00,Wunderground v.1.15,2013-06-28 22:07:00,
2013-06-28 16:12:00,89.2,54.6,29.80,East,91,2.0,4.0,31,0.00,,,0.00,Wunderground v.1.15,2013-06-28 22:12:00,
2013-06-28 16:17:00,88.8,54.3,29.80,NE,43,0.0,7.0,31,0.00,,,0.00,Wunderground v.1.15,2013-06-28 22:17:00,
2013-06-28 16:22:00,88.8,54.3,29.80,South,176,2.0,5.0,31,0.00,,,0.00,Wunderground v.1.15,2013-06-28 22:22:00,
2013-06-28 16:27:00,88.6,55.0,29.80,ESE,117,1.0,5.0,32,0.00,,,0.00,Wunderground v.1.15,2013-06-28 22:27:00,
2013-06-28 16:32:00,88.5,54.0,29.80,East,101,2.0,3.0,31,0.00,,,0.00,Wunderground v.1.15,2013-06-28 22:32:00,
2013-06-28 16:37:00,88.5,54.0,29.80,East,94,1.0,3.0,31,0.00,,,0.00,Wunderground v.1.15,2013-06-28 22:37:00,
2013-06-28 16:42:00,88.4,54.8,29.80,East,91,0.0,3.0,32,0.00,,,0.00,Wunderground v.1.15,2013-06-28 22:42:00,
2013-06-28 16:47:00,88.3,53.8,29.80,ESE,111,3.0,3.0,31,0.00,,,0.00,Wunderground v.1.15,2013-06-28 22:47:00,
2013-06-28 16:52:00,88.3,53.8,29.80,SSW,197,1.0,2.0,31,0.00,,,0.00,Wunderground v.1.15,2013-06-28 22:52:00,
2013-06-28 16:57:00,88.3,52.0,29.79,SSW,203,2.0,3.0,29,0.00,,,0.00,Wunderground v.1.15,2013-06-28 22:57:00,
2013-06-28 17:02:00,88.3,51.1,29.80,SW,217,3.0,4.0,28,0.00,,,0.00,Wunderground v.1.15,2013-06-28 23:02:00,
2013-06-28 17:07:00,88.3,52.0,29.80,SSE,147,2.0,4.0,29,0.00,,,0.00,Wunderground v.1.15,2013-06-28 23:07:00,
2013-06-28 17:12:00,88.0,54.4,29.79,WSW,239,3.0,3.0,32,0.00,,,0.00,Wunderground v.1.15,2013-06-28 23:12:00,
2013-06-28 17:17:00,87.5,54.0,29.80,WSW,239,3.0,4.0,32,0.00,,,0.00,Wunderground v.1.15,2013-06-28 23:17:00,
2013-06-28 17:22:00,87.2,53.7,29.80,SSW,197,2.0,4.0,32,0.00,,,0.00,Wunderground v.1.15,2013-06-28 23:22:00,
2013-06-28 17:27:00,86.8,55.9,29.79,SW,229,1.0,4.0,35,0.00,,,0.00,Wunderground v.1.15,2013-06-28 23:27:00,
2013-06-28 17:32:00,86.3,56.2,29.79,SW,236,3.0,3.0,36,0.00,,,0.00,Wunderground v.1.15,2013-06-28 23:32:00,
2013-06-28 17:37:00,86.0,57.4,29.78,WSW,241,4.0,4.0,38,0.00,,,0.00,Wunderground v.1.15,2013-06-28 23:37:00,
2013-06-28 17:42:00,85.7,57.2,29.79,WSW,243,4.0,4.0,38,0.00,,,0.00,Wunderground v.1.15,2013-06-28 23:42:00,
2013-06-28 17:47:00,84.8,58.5,29.79,WSW,248,4.0,5.0,41,0.00,,,0.00,Wunderground v.1.15,2013-06-28 23:47:00,
2013-06-28 17:52:00,83.0,61.9,29.79,West,260,5.0,6.0,49,0.00,,,0.00,Wunderground v.1.15,2013-06-28 23:52:00,
2013-06-28 17:57:00,80.4,63.3,29.79,West,270,4.0,6.0,56,0.00,,,0.01,Wunderground v.1.15,2013-06-28 23:57:00,
2013-06-28 18:02:00,78.5,63.9,29.79,SW,232,5.0,6.0,61,0.10,,,0.02,Wunderground v.1.15,2013-06-29 00:02:00,
2013-06-28 18:07:00,77.6,64.0,29.79,WSW,249,6.0,8.0,63,0.10,,,0.02,Wunderground v.1.15,2013-06-29 00:07:00,
2013-06-28 18:12:00,76.5,64.7,29.79,West,264,6.0,9.0,67,0.06,,,0.02,Wunderground v.1.15,2013-06-29 00:12:00,
2013-06-28 18:17:00,76.8,65.0,29.79,WSW,243,6.0,9.0,67,0.04,,,0.02,Wunderground v.1.15,2013-06-29 00:17:00,
2013-06-28 18:22:00,77.9,63.4,29.78,SW,231,4.0,8.0,61,0.00,,,0.02,Wunderground v.1.15,2013-06-29 00:22:00,
2013-06-28 18:27:00,79.3,64.2,29.78,SW,227,4.0,8.0,60,0.00,,,0.02,Wunderground v.1.15,2013-06-29 00:27:00,
2013-06-28 18:32:00,79.2,65.1,29.78,SSW,202,6.0,6.0,62,0.00,,,0.02,Wunderground v.1.15,2013-06-29 00:32:00,
2013-06-28 18:37:00,78.8,66.0,29.78,SW,231,6.0,9.0,65,0.00,,,0.02,Wunderground v.1.15,2013-06-29 00:37:00,
2013-06-28 18:42:00,78.7,63.6,29.78,West,259,7.0,10.0,60,0.00,,,0.02,Wunderground v.1.15,2013-06-29 00:42:00,
2013-06-28 18:47:00,79.4,65.7,29.79,WSW,250,6.0,10.0,63,0.00,,,0.03,Wunderground v.1.15,2013-06-29 00:47:00,
2013-06-28 18:52:00,77.9,65.6,29.79,WSW,256,5.0,6.0,66,0.00,,,0.03,Wunderground v.1.15,2013-06-29 00:52:00,
2013-06-28 18:57:00,76.7,67.0,29.79,West,278,5.0,6.0,72,0.27,,,0.05,Wunderground v.1.15,2013-06-29 00:57:00,
2013-06-28 19:02:00,75.4,66.5,29.80,WSW,253,7.0,7.0,74,0.24,,,0.07,Wunderground v.1.15,2013-06-29 01:02:00,
2013-06-28 19:07:00,75.3,64.0,29.80,SW,229,4.0,7.0,68,0.08,,,0.07,Wunderground v.1.15,2013-06-29 01:07:00,
2013-06-28 19:12:00,74.7,63.9,29.81,West,267,6.0,8.0,69,0.05,,,0.07,Wunderground v.1.15,2013-06-29 01:12:00,
2013-06-28 19:17:00,74.4,64.0,29.81,WSW,258,4.0,8.0,70,0.04,,,0.08,Wunderground v.1.15,2013-06-29 01:17:00,
2013-06-28 19:22:00,74.2,66.1,29.81,WSW,243,0.0,5.0,76,0.21,,,0.10,Wunderground v.1.15,2013-06-29 01:22:00,
2013-06-28 19:27:00,74.3,66.2,29.82,WNW,284,3.0,5.0,76,0.30,,,0.14,Wunderground v.1.15,2013-06-29 01:27:00,
2013-06-28 19:32:00,73.8,65.4,29.83,SSW,198,4.0,4.0,75,0.10,,,0.14,Wunderground v.1.15,2013-06-29 01:32:00,
2013-06-28 19:37:00,73.9,65.9,29.81,WSW,256,8.0,10.0,76,0.06,,,0.14,Wunderground v.1.15,2013-06-29 01:37:00,
2013-06-28 19:42:00,73.4,65.4,29.81,West,280,6.0,10.0,76,0.04,,,0.14,Wunderground v.1.15,2013-06-29 01:42:00,
2013-06-28 19:47:00,74.0,63.2,29.80,WSW,253,4.0,10.0,69,0.00,,,0.14,Wunderground v.1.15,2013-06-29 01:47:00,
2013-06-28 19:52:00,74.0,62.8,29.80,SSW,201,7.0,11.0,68,0.00,,,0.14,Wunderground v.1.15,2013-06-29 01:52:00,
2013-06-28 19:57:00,73.7,62.5,29.80,SW,231,6.0,11.0,68,0.00,,,0.14,Wunderground v.1.15,2013-06-29 01:57:00,
2013-06-28 20:02:00,73.4,61.8,29.81,WSW,252,4.0,9.0,67,0.00,,,0.14,Wunderground v.1.15,2013-06-29 02:02:00,
2013-06-28 20:07:00,73.1,61.9,29.82,SW,220,5.0,11.0,68,0.00,,,0.14,Wunderground v.1.15,2013-06-29 02:07:00,
2013-06-28 20:12:00,72.7,61.1,29.83,SW,228,4.0,9.0,67,0.00,,,0.14,Wunderground v.1.15,2013-06-29 02:12:00,
2013-06-28 20:17:00,72.7,62.3,29.84,WSW,245,0.0,9.0,70,0.00,,,0.14,Wunderground v.1.15,2013-06-29 02:17:00,
2013-06-28 20:22:00,71.7,58.9,29.88,NE,34,15.0,23.0,64,0.00,,,0.14,Wunderground v.1.15,2013-06-29 02:22:00,
2013-06-28 20:27:00,69.9,58.4,29.90,NE,37,10.0,23.0,67,0.00,,,0.14,Wunderground v.1.15,2013-06-29 02:27:00,
2013-06-28 20:32:00,68.6,59.2,29.92,NNE,30,18.0,25.0,72,0.00,,,0.14,Wunderground v.1.15,2013-06-29 02:32:00,
2013-06-28 20:37:00,67.5,59.3,29.93,NE,39,6.0,25.0,75,0.00,,,0.14,Wunderground v.1.15,2013-06-29 02:37:00,
2013-06-28 20:43:00,66.4,59.0,29.94,NNE,22,20.0,20.0,77,0.00,,,0.14,Wunderground v.1.15,2013-06-29 02:43:00,
2013-06-28 20:50:00,61.5,54.6,29.93,East,84,11.0,12.0,78,0.69,,,0.20,Wunderground v.1.15,2013-06-29 02:50:00,
2013-06-28 20:55:00,59.5,54.0,29.92,ESE,120,1.0,15.0,82,0.85,,,0.26,Wunderground v.1.15,2013-06-29 02:55:00,
2013-06-28 21:00:00,58.9,54.7,29.93,WNW,303,14.0,14.0,86,0.16,,,0.27,Wunderground v.1.15,2013-06-29 03:00:00,
2013-06-28 21:05:00,60.6,56.1,29.94,NW,322,10.0,20.0,85,0.07,,,0.27,Wunderground v.1.15,2013-06-29 03:05:00,
2013-06-28 21:10:00,61.7,55.5,29.93,NNW,333,16.0,16.0,80,0.05,,,0.28,Wunderground v.1.15,2013-06-29 03:10:00,
2013-06-28 21:15:00,62.6,56.3,29.93,NW,306,5.0,18.0,80,0.52,,,0.32,Wunderground v.1.15,2013-06-29 03:15:00,
2013-06-28 21:20:00,63.2,56.9,29.93,WNW,291,9.0,9.0,80,0.27,,,0.35,Wunderground v.1.15,2013-06-29 03:20:00,
2013-06-28 21:25:00,63.3,56.3,29.94,WNW,299,9.0,11.0,78,0.14,,,0.37,Wunderground v.1.15,2013-06-29 03:25:00,
2013-06-28 21:30:00,64.2,55.7,29.94,WNW,291,9.0,14.0,74,0.10,,,0.37,Wunderground v.1.15,2013-06-29 03:30:00,
2013-06-28 21:35:00,65.0,56.9,29.94,WNW,288,7.0,14.0,75,0.06,,,0.37,Wunderground v.1.15,2013-06-29 03:35:00,
2013-06-28 21:40:00,65.2,57.4,29.95,NW,319,16.0,16.0,76,0.05,,,0.38,Wunderground v.1.15,2013-06-29 03:40:00,
2013-06-28 21:45:00,64.4,57.4,29.95,WNW,294,4.0,16.0,78,0.05,,,0.38,Wunderground v.1.15,2013-06-29 03:45:00,
2013-06-28 21:50:00,64.0,57.4,29.95,West,274,5.0,9.0,79,0.05,,,0.38,Wunderground v.1.15,2013-06-29 03:50:00,
2013-06-28 21:55:00,64.0,57.0,29.95,NW,321,7.0,18.0,78,0.00,,,0.38,Wunderground v.1.15,2013-06-29 03:55:00,
2013-06-28 22:00:00,64.1,56.7,29.95,WNW,287,10.0,12.0,77,0.00,,,0.38,Wunderground v.1.15,2013-06-29 04:00:00,
2013-06-28 22:01:00,64.1,56.7,29.95,WNW,300,11.0,15.0,77,0.00,,,0.38,Wunderground v.1.15,2013-06-29 04:01:00,
2013-06-28 22:06:00,64.3,56.6,29.95,NW,307,15.0,16.0,76,0.00,,,0.38,Wunderground v.1.15,2013-06-29 04:06:00,
2013-06-28 22:11:00,64.3,57.3,29.95,NW,314,14.0,18.0,78,0.00,,,0.38,Wunderground v.1.15,2013-06-29 04:11:00,
2013-06-28 22:16:00,64.7,57.3,29.95,WNW,291,8.0,18.0,77,0.00,,,0.38,Wunderground v.1.15,2013-06-29 04:16:00,
2013-06-28 22:21:00,64.9,57.5,29.95,NW,305,7.0,12.0,77,0.00,,,0.38,Wunderground v.1.15,2013-06-29 04:21:00,
2013-06-28 22:26:00,64.8,57.8,29.95,WNW,297,13.0,14.0,78,0.00,,,0.38,Wunderground v.1.15,2013-06-29 04:26:00,
2013-06-28 22:31:00,64.5,57.5,29.96,ESE,108,1.0,8.0,78,0.00,,,0.38,Wunderground v.1.15,2013-06-29 04:31:00,
2013-06-28 22:36:00,64.4,57.4,29.96,North,352,5.0,8.0,78,0.00,,,0.38,Wunderground v.1.15,2013-06-29 04:36:00,
2013-06-28 22:41:00,64.6,57.9,29.96,SW,229,6.0,6.0,79,0.00,,,0.38,Wunderground v.1.15,2013-06-29 04:41:00,
2013-06-28 22:46:00,64.6,57.6,29.96,SSE,167,1.0,9.0,78,0.00,,,0.38,Wunderground v.1.15,2013-06-29 04:46:00,
2013-06-28 22:51:00,64.7,57.7,29.96,WSW,238,5.0,7.0,78,0.00,,,0.38,Wunderground v.1.15,2013-06-29 04:51:00,
2013-06-28 22:56:00,64.8,57.4,29.96,NE,40,4.0,12.0,77,0.00,,,0.38,Wunderground v.1.15,2013-06-29 04:56:00,
2013-06-28 23:01:00,64.6,57.6,29.96,SSW,198,4.0,6.0,78,0.00,,,0.38,Wunderground v.1.15,2013-06-29 05:01:00,
2013-06-28 23:06:00,64.2,57.5,29.95,WSW,249,3.0,6.0,79,0.00,,,0.38,Wunderground v.1.15,2013-06-29 05:06:00,
2013-06-28 23:11:00,64.5,57.5,29.95,South,190,2.0,4.0,78,0.00,,,0.38,Wunderground v.1.15,2013-06-29 05:11:00,
2013-06-28 23:16:00,64.5,57.5,29.96,ESE,115,2.0,5.0,78,0.00,,,0.38,Wunderground v.1.15,2013-06-29 05:16:00,
2013-06-28 23:21:00,64.2,57.2,29.96,West,266,5.0,5.0,78,0.00,,,0.38,Wunderground v.1.15,2013-06-29 05:21:00,
2013-06-28 23:26:00,64.6,57.2,29.96,North,356,2.0,7.0,77,0.00,,,0.38,Wunderground v.1.15,2013-06-29 05:26:00,
2013-06-28 23:31:00,64.7,57.0,29.96,ESE,117,2.0,7.0,76,0.00,,,0.38,Wunderground v.1.15,2013-06-29 05:31:00,
2013-06-28 23:36:00,65.3,57.2,29.96,ESE,120,2.0,7.0,75,0.00,,,0.38,Wunderground v.1.15,2013-06-29 05:36:00,
2013-06-28 23:41:00,65.1,57.0,29.96,NW,311,3.0,5.0,75,0.00,,,0.38,Wunderground v.1.15,2013-06-29 05:41:00,
2013-06-28 23:46:00,65.5,57.0,29.95,ESE,120,1.0,5.0,74,0.00,,,0.38,Wunderground v.1.15,2013-06-29 05:46:00,
2013-06-28 23:51:00,65.6,57.1,29.95,West,259,4.0,6.0,74,0.00,,,0.38,Wunderground v.1.15,2013-06-29 05:51:00,
2013-06-28 23:56:00,65.7,56.8,29.95,WNW,297,7.0,10.0,73,0.00,,,0.38,Wunderground v.1.15,2013-06-29 05:56:00,